Time;durP1;ratioP1;P1;durP2;ratioP2;P2;SDS_P1;SDS_P2;PMS_P1;PMS_P2;Temp;Humidity;BMP_temperature;BMP_pressure;BME280_temperature;BME280_humidity;BME280_pressure;Samples;Min_cycle;Max_cycle;Signal;HPM_P1;HPM_P2
2022/05/30 00:00:27;;;;;;;12.07;4.82;;;;;;;16.17;73.86;100374.88;6219703;23;20356;-82
2022/05/30 00:02:54;;;;;;;6.72;5.30;;;;;;;17.19;73.05;100538.09;6210058;23;20047;-82
2022/05/30 00:05:23;;;;;;;9.25;5.05;;;;;;;17.19;72.82;100540.78;6193535;23;20016;-81
2022/05/30 00:07:50;;;;;;;6.75;5.55;;;;;;;16.74;73.85;100464.69;6193888;23;20044;-83
2022/05/30 00:10:19;;;;;;;8.85;5.20;;;;;;;16.56;73.76;100443.56;6220132;23;20345;-81
2022/05/30 00:12:47;;;;;;;7.22;5.18;;;;;;;17.18;74.33;100541.78;6193657;23;20028;-82
2022/05/30 00:15:16;;;;;;;8.00;5.05;;;;;;;15.60;73.50;100279.69;6219739;23;20091;-83
2022/05/30 00:17:43;;;;;;;10.10;5.22;;;;;;;16.36;74.40;100405.72;6219971;23;20056;-84
2022/05/30 00:20:10;;;;;;;6.95;4.40;;;;;;;17.10;74.51;100528.44;6193242;23;20091;-82
2022/05/30 00:22:37;;;;;;;4.85;4.43;;;;;;;17.12;74.99;100537.16;6193014;23;20017;-81
2022/05/30 00:25:05;;;;;;;8.98;4.60;;;;;;;16.92;74.50;100501.09;6219292;23;20025;-82
2022/05/30 00:27:32;;;;;;;6.57;4.32;;;;;;;16.99;74.04;100499.38;6183356;23;20024;-83
2022/05/30 00:29:59;;;;;;;7.30;4.72;;;;;;;16.69;74.72;100453.66;6193257;23;20020;-82
2022/05/30 00:32:26;;;;;;;8.13;4.60;;;;;;;17.01;74.76;100502.69;6192930;23;20326;-83
2022/05/30 00:34:53;;;;;;;11.85;5.32;;;;;;;16.83;74.85;100478.91;6183105;23;20530;-82
2022/05/30 00:37:20;;;;;;;6.25;4.40;;;;;;;16.44;74.89;100400.28;6193386;23;20016;-83
2022/05/30 00:39:47;;;;;;;10.07;4.30;;;;;;;16.44;74.30;100392.25;6193372;23;20075;-81
2022/05/30 00:42:19;;;;;;;5.07;4.43;;;;;;;16.30;73.52;100370.75;6192625;23;20326;-81
2022/05/30 00:44:48;;;;;;;8.40;4.55;;;;;;;17.17;74.15;100524.03;6191506;23;20021;-82
2022/05/30 00:47:16;;;;;;;11.23;4.25;;;;;;;17.05;73.08;100494.13;6191932;23;20024;-81
2022/05/30 00:49:45;;;;;;;7.43;3.83;;;;;;;17.11;72.59;100503.28;6220273;23;20106;-81
2022/05/30 00:52:20;;;;;;;10.45;4.05;;;;;;;16.71;72.65;100446.28;6193433;23;20028;-81
2022/05/30 00:54:58;;;;;;;5.25;3.63;;;;;;;17.13;73.00;100505.78;6219189;23;20020;-81
2022/05/30 00:57:27;;;;;;;8.45;4.22;;;;;;;16.62;72.91;100424.06;6182582;23;20688;-82
2022/05/30 00:59:57;;;;;;;5.30;3.80;;;;;;;17.02;73.37;100491.81;6183357;23;20452;-80
2022/05/30 01:02:28;;;;;;;7.30;3.60;;;;;;;17.11;74.20;100522.06;6192832;23;20198;-82
2022/05/30 01:07:44;;;;;;;3.75;2.75;;;;;;;17.02;73.16;100499.03;6209143;23;20387;-82
2022/05/30 01:10:13;;;;;;;4.97;2.55;;;;;;;16.81;72.67;100464.84;6183298;23;20020;-81
2022/05/30 01:12:49;;;;;;;5.25;2.45;;;;;;;16.97;72.17;100496.06;6219646;23;20023;-82
2022/05/30 01:15:18;;;;;;;3.35;2.72;;;;;;;16.59;72.78;100435.16;6183049;23;20047;-82
2022/05/30 01:17:54;;;;;;;6.55;2.45;;;;;;;16.98;72.94;100503.06;6183393;23;20086;-83
2022/05/30 01:20:29;;;;;;;7.03;2.30;;;;;;;16.96;72.85;100497.06;6183172;23;20228;-83
2022/05/30 01:23:05;;;;;;;6.28;2.53;;;;;;;16.93;72.38;100494.75;6193437;23;20020;-81
2022/05/30 01:25:41;;;;;;;4.18;2.60;;;;;;;16.88;72.74;100490.75;6192552;23;20013;-81
2022/05/30 01:28:22;;;;;;;4.90;2.90;;;;;;;16.13;71.95;100360.16;6209607;23;20101;-81
2022/05/30 01:30:49;;;;;;;5.95;3.35;;;;;;;16.94;72.26;100501.75;6219408;23;20024;-81
2022/05/30 01:33:17;;;;;;;6.50;3.42;;;;;;;15.68;72.72;100294.00;6193570;23;20090;-81
2022/05/30 01:35:43;;;;;;;5.00;2.92;;;;;;;16.80;71.78;100465.88;6219852;23;20095;-82
2022/05/30 01:38:10;;;;;;;4.65;3.25;;;;;;;16.58;71.56;100443.41;6195978;23;20027;-82
2022/05/30 01:40:37;;;;;;;8.10;3.50;;;;;;;16.88;73.10;100493.44;6225418;23;20024;-82
2022/05/30 01:43:03;;;;;;;7.85;4.40;;;;;;;16.76;72.50;100478.75;6201707;23;20295;-81
2022/05/30 01:45:30;;;;;;;7.53;4.70;;;;;;;15.81;72.51;100319.22;6207525;23;20024;-82
2022/05/30 01:47:58;;;;;;;6.45;4.85;;;;;;;16.66;72.00;100440.63;6232321;23;20021;-83
2022/05/30 01:50:27;;;;;;;8.05;4.25;;;;;;;16.71;71.86;100418.66;6212968;23;20025;-81
2022/05/30 01:52:53;;;;;;;6.30;4.30;;;;;;;16.08;70.49;100356.38;6194186;23;20404;-80
2022/05/30 01:55:20;;;;;;;4.90;4.40;;;;;;;16.02;71.40;100323.94;6195694;23;20020;-83
2022/05/30 01:57:46;;;;;;;6.32;4.85;;;;;;;16.87;70.82;100470.31;6193363;23;20222;-82
2022/05/30 02:00:20;;;;;;;6.22;4.97;;;;;;;16.61;71.43;100410.88;6193718;23;20040;-80
2022/05/30 02:02:47;;;;;;;5.05;4.50;;;;;;;16.83;71.45;100446.72;6192362;23;20027;-82
2022/05/30 02:05:14;;;;;;;11.85;6.10;;;;;;;15.80;71.99;100281.91;6218706;23;20020;-81
2022/05/30 02:07:42;;;;;;;6.32;5.40;;;;;;;16.93;72.01;100462.56;6182225;23;20361;-81
2022/05/30 02:10:09;;;;;;;8.23;5.57;;;;;;;16.85;72.28;100460.78;6210267;23;20031;-81
2022/05/30 02:12:35;;;;;;;6.28;5.40;;;;;;;16.88;71.98;100466.63;6212795;23;20059;-82
2022/05/30 02:15:03;;;;;;;10.40;6.25;;;;;;;16.06;73.04;100348.50;6183134;23;20126;-81
2022/05/30 02:17:33;;;;;;;8.35;5.78;;;;;;;15.15;71.54;100208.25;6192904;23;20032;-81
2022/05/30 02:19:59;;;;;;;7.18;5.15;;;;;;;16.56;71.43;100445.41;6192191;23;20074;-81
2022/05/30 02:22:30;;;;;;;8.23;5.38;;;;;;;16.36;72.28;100432.50;6193216;23;20016;-81
2022/05/30 02:24:57;;;;;;;7.95;5.50;;;;;;;16.67;70.80;100491.41;6192315;23;20321;-81
2022/05/30 02:27:24;;;;;;;6.20;5.35;;;;;;;16.72;71.12;100493.50;6192504;23;20254;-82
2022/05/30 02:29:52;;;;;;;7.05;6.07;;;;;;;16.60;71.19;100484.22;6192529;23;20334;-81
2022/05/30 02:32:19;;;;;;;6.63;5.32;;;;;;;16.58;71.20;100464.84;6182193;23;20021;-81
2022/05/30 02:37:31;;;;;;;6.00;5.40;;;;;;;16.61;71.90;100475.19;6218156;23;20408;-81
2022/05/30 02:39:58;;;;;;;9.55;6.18;;;;;;;16.52;71.29;100466.38;6192155;23;20336;-81
2022/05/30 02:42:26;;;;;;;6.72;5.13;;;;;;;16.63;71.94;100478.53;6182480;23;20017;-81
2022/05/30 02:44:53;;;;;;;6.53;5.40;;;;;;;16.45;71.22;100442.13;6192513;23;20025;-81
2022/05/30 02:47:21;;;;;;;7.85;6.35;;;;;;;16.74;71.79;100486.13;6218740;23;20476;-81
2022/05/30 02:49:47;;;;;;;8.88;5.10;;;;;;;15.79;71.22;100336.47;6182276;23;20361;-81
2022/05/30 02:52:14;;;;;;;6.07;5.35;;;;;;;15.98;70.21;100373.50;6218138;23;20467;-81
2022/05/30 02:54:41;;;;;;;8.10;5.85;;;;;;;16.15;70.27;100416.22;6192286;23;20021;-82
2022/05/30 02:57:08;;;;;;;6.93;5.78;;;;;;;16.12;71.15;100421.94;6218518;23;20025;-82
2022/05/30 02:59:35;;;;;;;8.13;6.28;;;;;;;16.37;71.16;100473.50;6219122;23;20039;-81
2022/05/30 03:02:02;;;;;;;8.57;5.50;;;;;;;16.49;70.66;100488.16;6208417;23;20025;-80
2022/05/30 03:04:29;;;;;;;7.47;6.15;;;;;;;16.55;69.81;100491.97;6192204;23;20024;-81
2022/05/30 03:06:56;;;;;;;6.40;5.75;;;;;;;16.42;70.46;100482.66;6191581;23;20020;-81
2022/05/30 03:09:22;;;;;;;6.28;5.38;;;;;;;16.43;71.08;100484.38;6192043;23;20024;-81
2022/05/30 03:11:49;;;;;;;8.90;6.35;;;;;;;15.94;70.49;100393.59;6181589;23;20032;-81
2022/05/30 03:14:16;;;;;;;8.73;5.78;;;;;;;16.45;70.38;100479.63;6182018;23;20020;-81
2022/05/30 03:16:43;;;;;;;7.43;5.95;;;;;;;16.48;70.61;100486.50;6218196;23;20051;-83
2022/05/30 03:19:09;;;;;;;6.38;5.78;;;;;;;15.97;70.48;100397.75;6181889;23;20020;-80
2022/05/30 03:21:36;;;;;;;10.73;6.13;;;;;;;16.60;70.63;100511.03;6191377;23;20023;-81
2022/05/30 03:24:03;;;;;;;10.75;6.32;;;;;;;16.21;70.66;100453.00;6191979;23;20051;-80
2022/05/30 03:26:30;;;;;;;11.15;5.95;;;;;;;16.35;70.75;100476.34;6191639;23;20473;-80
2022/05/30 03:28:57;;;;;;;6.88;6.13;;;;;;;16.52;71.38;100519.13;6181403;23;20024;-81
2022/05/30 03:31:24;;;;;;;6.53;5.78;;;;;;;15.48;71.28;100339.94;6182112;23;20024;-80
2022/05/30 03:33:51;;;;;;;9.13;6.30;;;;;;;16.46;70.89;100509.97;6218363;23;20166;-81
2022/05/30 03:36:30;;;;;;;9.25;6.05;;;;;;;16.32;71.28;100502.69;6191401;23;20395;-80
2022/05/30 03:38:57;;;;;;;7.95;5.78;;;;;;;16.23;70.77;100494.66;6208141;23;20529;-78
2022/05/30 03:41:23;;;;;;;8.38;5.55;;;;;;;16.20;71.10;100488.84;6218302;23;20020;-81
2022/05/30 03:43:50;;;;;;;7.35;5.90;;;;;;;16.43;71.41;100532.59;6181658;23;20028;-81
2022/05/30 03:46:17;;;;;;;5.35;4.45;;;;;;;16.14;70.58;100492.22;6191137;23;20067;-81
2022/05/30 03:48:44;;;;;;;6.03;5.22;;;;;;;16.30;69.20;100526.94;6192672;23;20017;-80
2022/05/30 03:51:12;;;;;;;5.50;4.95;;;;;;;16.39;69.91;100533.09;6210217;23;20051;-79
2022/05/30 03:53:40;;;;;;;6.45;4.57;;;;;;;16.47;69.40;100532.22;6222505;23;20047;-81
2022/05/30 03:56:07;;;;;;;5.18;4.63;;;;;;;16.51;70.08;100536.22;6197729;23;20441;-81
2022/05/30 03:58:34;;;;;;;10.77;5.07;;;;;;;15.99;70.31;100462.66;6201826;23;20464;-80
2022/05/30 04:01:04;;;;;;;12.20;5.05;;;;;;;16.37;70.11;100527.91;6207137;23;20016;-82
2022/05/30 04:03:31;;;;;;;9.02;4.68;;;;;;;16.42;70.44;100530.91;6186951;23;20021;-81
2022/05/30 04:05:58;;;;;;;5.32;4.82;;;;;;;16.61;69.95;100537.66;6195931;23;20477;-82
2022/05/30 04:08:25;;;;;;;9.35;5.38;;;;;;;16.57;70.21;100530.16;6196855;23;20017;-81
2022/05/30 04:10:52;;;;;;;7.20;4.50;;;;;;;16.33;70.01;100499.81;6184797;23;20021;-82
2022/05/30 04:13:18;;;;;;;4.50;4.10;;;;;;;16.52;68.87;100529.84;6187856;23;20017;-80
2022/05/30 04:15:46;;;;;;;4.13;3.03;;;;;;;16.42;68.67;100509.47;6188045;23;20543;-78
2022/05/30 04:18:13;;;;;;;5.18;3.47;;;;;;;16.38;67.12;100486.75;6188565;23;20519;-81
2022/05/30 04:20:41;;;;;;;5.65;3.00;;;;;;;16.25;67.22;100481.13;6186393;23;20029;-82
2022/05/30 04:23:08;;;;;;;3.83;2.58;;;;;;;16.03;66.59;100456.78;6186562;23;20021;-79
2022/05/30 04:25:36;;;;;;;4.03;2.92;;;;;;;16.68;66.69;100559.22;6176486;23;20028;-80
2022/05/30 04:28:03;;;;;;;2.88;2.58;;;;;;;16.63;66.69;100577.69;6185953;23;20044;-80
2022/05/30 04:30:30;;;;;;;3.47;2.75;;;;;;;16.61;68.37;100566.31;6176209;23;20091;-80
2022/05/30 04:32:56;;;;;;;5.28;4.18;;;;;;;16.32;68.00;100513.38;6187168;23;20035;-81
2022/05/30 04:35:23;;;;;;;5.43;2.60;;;;;;;15.96;68.24;100463.03;6188852;23;20033;-81
2022/05/30 04:37:50;;;;;;;3.90;3.22;;;;;;;16.15;67.48;100502.75;6187790;23;20024;-80
2022/05/30 04:40:19;;;;;;;4.45;2.30;;;;;;;16.36;65.84;100545.00;6178481;23;20021;-81
2022/05/30 04:42:47;;;;;;;2.30;2.10;;;;;;;16.15;66.10;100523.34;6178148;23;20021;-80
2022/05/30 04:45:14;;;;;;;2.90;1.98;;;;;;;16.53;65.42;100582.41;6187668;23;20428;-81
2022/05/30 04:47:42;;;;;;;2.55;1.83;;;;;;;15.99;66.15;100497.47;6189739;23;20055;-82
2022/05/30 04:50:15;;;;;;;2.35;2.15;;;;;;;16.55;65.05;100593.81;6188238;23;20300;-81
2022/05/30 04:52:44;;;;;;;2.10;1.83;;;;;;;16.62;65.56;100587.56;6188045;23;20017;-81
2022/05/30 04:55:12;;;;;;;2.22;1.80;;;;;;;16.75;65.38;100587.00;6188098;23;20029;-81
2022/05/30 04:57:44;;;;;;;5.97;2.38;;;;;;;16.79;66.00;100580.28;6178081;23;20489;-80
2022/05/30 05:00:12;;;;;;;;;;;;;;;16.74;65.61;100588.00;6188875;23;20021;-80
2022/05/30 05:02:38;;;;;;;3.58;2.13;;;;;;;16.60;64.99;100562.81;6187607;23;19947;-80
2022/05/30 05:05:06;;;;;;;2.33;2.00;;;;;;;16.68;65.13;100583.34;6188211;23;20057;-81
2022/05/30 05:07:48;;;;;;;6.28;2.08;;;;;;;16.80;63.85;100598.06;6188067;23;20319;-82
2022/05/30 05:10:32;;;;;;;;;;;;;;;16.72;64.20;100600.72;6180042;23;20029;-81
2022/05/30 05:12:59;;;;;;;2.97;2.30;;;;;;;16.69;64.53;100590.38;6189936;23;19916;-80
2022/05/30 05:15:26;;;;;;;4.30;2.28;;;;;;;16.62;63.38;100584.03;6187985;23;20029;-80
2022/05/30 05:17:54;;;;;;;4.05;2.00;;;;;;;16.77;64.06;100614.47;6188105;23;20086;-81
2022/05/30 05:20:23;;;;;;;3.75;2.30;;;;;;;16.90;64.51;100613.09;6179766;23;20021;-79
2022/05/30 05:22:53;;;;;;;5.22;2.30;;;;;;;16.75;65.20;100600.41;6189930;23;20044;-80
2022/05/30 05:25:19;;;;;;;3.72;1.95;;;;;;;16.76;64.78;100614.63;6177953;23;20350;-80
2022/05/30 05:27:49;;;;;;;4.63;1.95;;;;;;;16.88;64.09;100610.56;6189100;23;20056;-82
2022/05/30 05:30:16;;;;;;;2.78;2.00;;;;;;;16.81;64.56;100615.78;6189273;23;20017;-82
2022/05/30 05:32:43;;;;;;;3.85;2.33;;;;;;;16.80;64.06;100600.72;6179119;23;20469;-81
2022/05/30 05:35:10;;;;;;;3.05;2.35;;;;;;;16.70;63.78;100585.84;6189286;23;20048;-82
2022/05/30 05:37:37;;;;;;;2.53;2.20;;;;;;;16.83;63.41;100612.94;6188071;23;20353;-81
2022/05/30 05:40:04;;;;;;;2.38;2.00;;;;;;;16.78;64.31;100608.13;6187506;23;20299;-81
2022/05/30 05:42:31;;;;;;;2.58;2.38;;;;;;;16.74;63.84;100593.34;6177066;23;20523;-80
2022/05/30 05:44:57;;;;;;;5.47;2.13;;;;;;;16.56;64.24;100549.94;6187026;23;20025;-80
2022/05/30 05:47:24;;;;;;;2.83;2.17;;;;;;;16.79;63.42;100600.91;6187049;23;20342;-80
2022/05/30 05:49:56;;;;;;;6.10;1.95;;;;;;;16.97;63.24;100630.13;6188791;23;20227;-81
2022/05/30 05:52:25;;;;;;;2.17;1.95;;;;;;;16.11;63.53;100492.56;6187479;23;20017;-81
2022/05/30 05:54:55;;;;;;;2.40;1.70;;;;;;;16.97;62.40;100620.22;6177102;23;20021;-80
2022/05/30 05:57:25;;;;;;;2.25;1.88;;;;;;;16.79;62.50;100612.44;6186809;23;20017;-81
2022/05/30 05:59:52;;;;;;;2.60;1.90;;;;;;;16.76;62.70;100606.59;6176875;23;20021;-81
2022/05/30 06:02:19;;;;;;;3.58;2.05;;;;;;;16.56;63.00;100572.19;6176948;23;20028;-79
2022/05/30 06:04:46;;;;;;;2.63;1.80;;;;;;;16.68;64.64;100602.13;6178566;23;20049;-80
2022/05/30 06:07:13;;;;;;;2.30;1.63;;;;;;;16.89;63.84;100620.28;6177503;23;20021;-77
2022/05/30 06:09:40;;;;;;;2.72;2.22;;;;;;;16.77;65.63;100609.09;6188880;23;20219;-80
2022/05/30 06:12:10;;;;;;;8.75;2.53;;;;;;;16.71;65.13;100584.84;6179190;23;20059;-81
2022/05/30 06:14:37;;;;;;;3.47;2.38;;;;;;;16.91;63.26;100614.75;6190528;23;20515;-80
2022/05/30 06:17:04;;;;;;;3.72;2.00;;;;;;;16.65;63.03;100563.09;6190361;23;20024;-80
2022/05/30 06:19:30;;;;;;;4.90;2.25;;;;;;;17.12;62.68;100638.25;6192151;23;20017;-81
2022/05/30 06:21:57;;;;;;;4.82;2.08;;;;;;;17.18;63.58;100638.34;6185508;23;20457;-81
2022/05/30 06:24:24;;;;;;;3.67;1.98;;;;;;;17.02;61.61;100617.03;6191098;23;20449;-82
2022/05/30 06:26:51;;;;;;;6.50;1.70;;;;;;;16.94;62.49;100609.00;6187971;23;20083;-81
2022/05/30 06:29:18;;;;;;;4.07;2.00;;;;;;;17.20;62.37;100644.38;6184794;23;20084;-81
2022/05/30 06:31:45;;;;;;;7.50;2.17;;;;;;;17.26;62.21;100649.03;6191829;23;20024;-82
2022/05/30 06:34:12;;;;;;;3.03;2.00;;;;;;;17.28;62.06;100628.22;6176894;23;20027;-80
2022/05/30 06:36:41;;;;;;;6.88;2.08;;;;;;;17.21;62.40;100616.53;6186900;23;20473;-80
2022/05/30 06:39:08;;;;;;;3.10;2.05;;;;;;;17.41;62.27;100642.88;6176829;23;20501;-80
2022/05/30 06:41:35;;;;;;;3.72;2.20;;;;;;;17.27;61.99;100607.75;6178175;23;20064;-81
2022/05/30 06:44:04;;;;;;;3.20;1.85;;;;;;;17.43;61.67;100636.31;6183842;23;20017;-80
2022/05/30 06:46:33;;;;;;;3.65;2.28;;;;;;;16.96;61.93;100553.38;6187840;23;20021;-79
2022/05/30 06:49:00;;;;;;;5.03;1.63;;;;;;;17.45;62.45;100641.50;6177768;23;20056;-80
2022/05/30 06:51:28;;;;;;;4.55;2.00;;;;;;;17.54;62.52;100640.41;6178921;23;20389;-80
2022/05/30 06:53:55;;;;;;;5.38;2.22;;;;;;;17.37;62.22;100614.75;6177115;23;20084;-79
2022/05/30 06:56:28;;;;;;;2.13;1.88;;;;;;;17.59;62.25;100631.81;6186069;23;20033;-80
2022/05/30 06:58:55;;;;;;;2.65;2.03;;;;;;;17.56;62.39;100624.97;6186509;23;20029;-79
2022/05/30 07:01:25;;;;;;;2.72;2.03;;;;;;;17.37;61.88;100582.53;6186216;23;20017;-79
2022/05/30 07:03:52;;;;;;;5.88;2.20;;;;;;;17.82;61.81;100645.25;6218395;23;20023;-79
2022/05/30 07:06:28;;;;;;;2.58;2.17;;;;;;;17.68;62.36;100645.00;6191649;23;20035;-80
2022/05/30 07:08:55;;;;;;;11.65;2.28;;;;;;;17.30;62.48;100582.41;6191482;23;20043;-79
2022/05/30 07:11:22;;;;;;;1.80;1.70;;;;;;;17.77;62.75;100650.28;6191940;23;20096;-80
2022/05/30 07:13:50;;;;;;;2.95;2.30;;;;;;;17.55;62.10;100617.09;6191468;23;20476;-80
2022/05/30 07:16:17;;;;;;;1.60;1.50;;;;;;;17.80;62.14;100649.94;6218402;23;20024;-81
2022/05/30 07:18:45;;;;;;;3.08;1.85;;;;;;;17.85;62.17;100669.03;6181814;23;20055;-80
2022/05/30 07:21:13;;;;;;;5.45;1.85;;;;;;;16.65;62.25;100477.34;6191373;23;20024;-81
2022/05/30 07:23:41;;;;;;;4.25;2.15;;;;;;;17.91;61.78;100662.94;6191931;23;20017;-81
2022/05/30 07:26:15;;;;;;;2.22;1.92;;;;;;;17.83;62.17;100653.09;6207815;23;20028;-79
2022/05/30 07:28:43;;;;;;;4.85;2.15;;;;;;;17.89;61.20;100663.13;6191819;23;20025;-79
2022/05/30 07:31:13;;;;;;;6.13;2.20;;;;;;;18.01;61.90;100659.97;6217852;23;20039;-80
2022/05/30 07:33:42;;;;;;;5.93;2.42;;;;;;;18.06;61.93;100668.31;6191533;23;20016;-79
2022/05/30 07:36:11;;;;;;;3.72;1.55;;;;;;;17.86;61.05;100625.03;6207868;23;20028;-80
2022/05/30 07:38:38;;;;;;;3.17;2.15;;;;;;;18.13;61.53;100670.09;6191210;23;20024;-80
2022/05/30 07:41:06;;;;;;;5.32;1.80;;;;;;;18.20;61.31;100670.19;6192370;23;20035;-79
2022/05/30 07:43:33;;;;;;;3.25;1.98;;;;;;;18.29;61.10;100662.88;6198829;23;20071;-81
2022/05/30 07:46:02;;;;;;;6.38;1.88;;;;;;;18.38;61.04;100667.16;6200683;23;20025;-79
2022/05/30 07:48:29;;;;;;;4.75;1.92;;;;;;;18.21;60.95;100662.97;6196016;23;20016;-79
2022/05/30 07:50:57;;;;;;;3.67;1.85;;;;;;;18.07;61.32;100633.22;6192759;23;20048;-80
2022/05/30 07:53:25;;;;;;;5.82;2.13;;;;;;;17.88;61.55;100598.84;6181812;23;20460;-79
2022/05/30 07:55:52;;;;;;;7.75;2.20;;;;;;;18.34;60.81;100668.53;6191478;23;20032;-80
2022/05/30 07:58:19;;;;;;;7.65;1.60;;;;;;;18.28;60.92;100637.88;6181238;23;20079;-80
2022/05/30 08:00:49;;;;;;;3.38;2.38;;;;;;;18.26;61.65;100622.94;6191652;23;20024;-80
2022/05/30 08:03:16;;;;;;;4.95;2.67;;;;;;;18.58;62.04;100670.09;6191497;23;20047;-78
2022/05/30 08:05:47;;;;;;;6.25;2.00;;;;;;;18.64;61.08;100665.81;6191372;23;20017;-78
2022/05/30 08:08:21;;;;;;;4.78;2.15;;;;;;;18.55;60.63;100641.72;6218198;23;20023;-78
2022/05/30 08:10:48;;;;;;;3.35;1.77;;;;;;;18.73;61.76;100659.31;6182833;23;20326;-79
2022/05/30 08:13:15;;;;;;;4.35;2.30;;;;;;;18.73;60.61;100665.50;6209395;23;20071;-78
2022/05/30 08:15:41;;;;;;;5.55;1.98;;;;;;;17.89;60.28;100538.75;6183466;23;20024;-80
2022/05/30 08:18:14;;;;;;;2.08;1.67;;;;;;;18.65;60.30;100679.06;6168989;23;20016;-78
2022/05/30 08:20:41;;;;;;;4.85;2.15;;;;;;;18.75;60.34;100660.78;6192732;23;20045;-79
2022/05/30 08:23:08;;;;;;;4.32;1.70;;;;;;;18.67;61.04;100643.94;6192909;23;20455;-79
2022/05/30 08:25:37;;;;;;;4.85;2.22;;;;;;;18.27;60.94;100544.00;6222315;23;20091;-78
2022/05/30 08:28:09;;;;;;;5.95;1.95;;;;;;;18.88;60.16;100652.06;6200668;23;20516;-81
2022/05/30 08:30:37;;;;;;;2.75;2.33;;;;;;;18.93;60.28;100641.59;6222143;23;20032;-80
2022/05/30 08:33:12;;;;;;;3.38;2.17;;;;;;;19.14;59.45;100656.91;6194747;23;20111;-80
2022/05/30 08:35:39;;;;;;;6.93;2.38;;;;;;;18.99;59.87;100659.66;6219632;23;20562;-80
2022/05/30 08:38:06;;;;;;;2.97;2.63;;;;;;;19.11;60.23;100668.06;6193884;23;20152;-78
2022/05/30 08:43:30;;;;;;;3.42;2.28;;;;;;;18.94;59.89;100640.56;6211199;23;20025;-80
2022/05/30 08:46:11;;;;;;;3.17;2.55;;;;;;;19.09;60.15;100658.50;6195657;23;20047;-80
2022/05/30 08:48:47;;;;;;;5.45;2.30;;;;;;;19.37;59.96;100683.66;6183527;23;20024;-80
2022/05/30 08:51:42;;;;;;;6.57;2.33;;;;;;;19.37;59.20;100680.97;6182821;23;20075;-80
2022/05/30 08:54:58;;;;;;;6.30;2.17;;;;;;;19.46;59.72;100683.50;6192114;23;20348;-80
2022/05/30 08:57:40;;;;;;;8.30;2.70;;;;;;;18.81;59.50;100564.25;6067436;23;20014;-80
2022/05/30 09:00:11;;;;;;;5.53;2.60;;;;;;;18.87;59.78;100561.66;6184819;23;20024;-79
2022/05/30 09:02:45;;;;;;;5.03;2.25;;;;;;;19.34;59.03;100640.13;6187624;23;20484;-80
2022/05/30 09:05:20;;;;;;;3.38;2.15;;;;;;;19.63;58.97;100692.97;6187599;23;20300;-80
2022/05/30 09:08:13;;;;;;;3.03;1.70;;;;;;;19.56;59.03;100686.69;6177930;23;20107;-79
2022/05/30 09:11:03;;;;;;;3.28;1.67;;;;;;;19.56;58.79;100686.69;6187468;23;20040;-79
2022/05/30 09:13:34;;;;;;;2.90;1.83;;;;;;;19.68;58.91;100700.50;6177214;23;20021;-80
2022/05/30 09:16:16;;;;;;;7.35;2.17;;;;;;;19.76;58.74;100693.16;6187385;23;20022;-80
2022/05/30 09:18:48;;;;;;;4.47;2.13;;;;;;;19.27;59.07;100594.28;6186870;23;20025;-78
2022/05/30 09:21:18;;;;;;;2.30;1.63;;;;;;;19.79;58.64;100665.81;6187126;23;20071;-80
2022/05/30 09:23:45;;;;;;;3.38;2.05;;;;;;;19.91;58.28;100657.19;6186948;23;20021;-79
2022/05/30 09:26:20;;;;;;;3.50;1.83;;;;;;;20.09;57.54;100687.16;6189451;23;20040;-79
2022/05/30 09:28:49;;;;;;;4.43;2.08;;;;;;;19.59;57.89;100600.16;6186875;23;20092;-80
2022/05/30 09:31:35;;;;;;;4.03;2.17;;;;;;;20.21;57.23;100690.97;6187075;23;20083;-81
2022/05/30 09:34:57;;;;;;;3.60;1.70;;;;;;;20.00;56.81;100662.25;6187633;23;20318;-78
2022/05/30 09:37:27;;;;;;;5.82;1.70;;;;;;;20.22;57.79;100687.25;6125323;23;20493;-81
2022/05/30 09:39:54;;;;;;;4.68;1.80;;;;;;;20.05;57.92;100653.56;6176701;23;20017;-80
2022/05/30 09:42:43;;;;;;;2.28;1.85;;;;;;;20.36;57.16;100690.84;6178743;23;20404;-80
2022/05/30 09:45:24;;;;;;;3.35;1.60;;;;;;;19.81;56.79;100587.50;6158149;23;20187;-80
2022/05/30 09:48:03;;;;;;;2.28;1.60;;;;;;;20.45;57.17;100686.16;6180187;23;20089;-80
2022/05/30 09:50:30;;;;;;;2.30;1.50;;;;;;;20.56;57.62;100691.00;6188399;23;20052;-77
2022/05/30 09:52:58;;;;;;;1.70;1.50;;;;;;;20.62;57.01;100683.97;6186785;23;20368;-78
2022/05/30 09:55:33;;;;;;;7.57;1.85;;;;;;;20.67;56.79;100695.81;6187122;23;20075;-79
2022/05/30 09:58:03;;;;;;;2.90;2.13;;;;;;;20.41;56.92;100664.16;6177423;23;20088;-77
2022/05/30 10:00:29;;;;;;;2.72;2.08;;;;;;;20.77;56.57;100705.41;6186403;23;20461;-80
2022/05/30 10:03:31;;;;;;;4.60;1.70;;;;;;;20.87;55.61;100692.38;6204650;23;20016;-78
2022/05/30 10:06:16;;;;;;;3.97;1.63;;;;;;;20.77;55.96;100673.03;6174400;23;20035;-79
2022/05/30 10:08:46;;;;;;;4.00;1.85;;;;;;;20.75;56.42;100680.50;6192555;23;20253;-79
2022/05/30 10:11:34;;;;;;;13.10;2.05;;;;;;;20.58;57.09;100686.22;6208176;23;20396;-80
2022/05/30 10:14:20;;;;;;;6.10;2.13;;;;;;;19.92;56.50;100556.47;6192079;23;20412;-79
2022/05/30 10:16:49;;;;;;;2.35;1.40;;;;;;;20.61;56.47;100661.56;6218345;23;20046;-78
2022/05/30 10:19:31;;;;;;;4.95;2.10;;;;;;;19.40;56.26;100462.53;6181544;23;20024;-80
2022/05/30 10:28:14;;;;;;;2.07;1.83;;;;;;;21.06;55.98;100688.91;6207321;23;20479;-80
2022/05/30 10:30:51;;;;;;;3.35;2.20;;;;;;;21.06;55.50;100699.72;6191265;23;20023;-80
2022/05/30 10:33:20;;;;;;;2.30;1.88;;;;;;;21.04;55.45;100690.97;6191847;23;20052;-81
2022/05/30 10:36:06;;;;;;;3.85;2.30;;;;;;;21.03;55.14;100694.72;6192032;23;20017;-78
2022/05/30 10:38:50;;;;;;;1.98;1.80;;;;;;;21.12;56.40;100696.22;6191730;23;20078;-80
2022/05/30 10:41:29;;;;;;;2.53;1.73;;;;;;;20.98;56.12;100637.81;6182156;23;20177;-80
2022/05/30 10:44:21;;;;;;;8.05;2.20;;;;;;;21.32;55.14;100704.34;6218019;23;20388;-80
2022/05/30 10:47:03;;;;;;;8.45;3.08;;;;;;;21.32;53.74;100692.72;6182534;23;20020;-81
2022/05/30 10:49:36;;;;;;;5.55;2.88;;;;;;;21.23;54.16;100672.34;6182148;23;20021;-80
2022/05/30 10:52:20;;;;;;;2.25;2.05;;;;;;;21.23;53.67;100689.38;6192478;23;20032;-80
2022/05/30 10:54:58;;;;;;;2.80;2.50;;;;;;;21.28;54.29;100697.69;6192210;23;20020;-80
2022/05/30 10:57:40;;;;;;;5.60;2.58;;;;;;;21.35;53.71;100703.09;6192178;23;20086;-79
2022/05/30 11:00:20;;;;;;;8.60;3.10;;;;;;;20.76;53.61;100585.88;6190572;23;20031;-80
2022/05/30 11:03:08;;;;;;;4.15;2.67;;;;;;;21.06;53.84;100621.44;6218655;23;20020;-81
2022/05/30 11:05:52;;;;;;;3.38;2.40;;;;;;;21.68;54.06;100702.38;6188896;23;20406;-79
2022/05/30 11:08:33;;;;;;;6.07;2.70;;;;;;;21.77;52.97;100692.97;6191958;23;20024;-80
2022/05/30 11:11:29;;;;;;;5.57;2.78;;;;;;;22.03;52.19;100694.03;6182754;23;20071;-79
2022/05/30 11:14:03;;;;;;;5.50;3.08;;;;;;;22.31;52.50;100677.59;6192323;23;20020;-79
2022/05/30 11:16:40;;;;;;;3.90;3.00;;;;;;;22.50;51.84;100694.78;6187439;23;20452;-79
2022/05/30 11:19:16;;;;;;;6.10;2.42;;;;;;;22.56;52.35;100688.53;6182609;23;20081;-79
2022/05/30 11:22:06;;;;;;;4.03;2.60;;;;;;;22.65;51.73;100700.78;6191792;23;20016;-79
2022/05/30 11:24:34;;;;;;;3.42;2.60;;;;;;;22.59;51.53;100678.09;6206545;23;20016;-80
2022/05/30 11:27:05;;;;;;;12.20;2.90;;;;;;;22.71;51.55;100688.28;6191190;23;20338;-80
2022/05/30 11:29:34;;;;;;;3.90;3.47;;;;;;;22.70;51.02;100700.97;6191116;23;20145;-79
2022/05/30 11:32:34;;;;;;;3.63;3.33;;;;;;;22.49;50.80;100671.50;6190518;23;20448;-81
2022/05/30 11:35:30;;;;;;;3.78;2.80;;;;;;;22.54;51.06;100679.78;6181382;23;20021;-81
2022/05/30 11:38:32;;;;;;;3.85;3.30;;;;;;;22.67;51.31;100697.84;6191595;23;20040;-80
2022/05/30 11:41:22;;;;;;;7.10;3.50;;;;;;;22.77;51.09;100693.66;6191916;23;20337;-80
2022/05/30 11:44:13;;;;;;;4.15;3.25;;;;;;;23.15;50.12;100687.44;6207655;23;20314;-79
2022/05/30 11:47:09;;;;;;;6.05;3.08;;;;;;;23.18;49.42;100634.72;6218904;23;20059;-80
2022/05/30 11:50:19;;;;;;;3.97;2.95;;;;;;;24.01;48.48;100696.84;6193167;23;20115;-80
2022/05/30 11:53:09;;;;;;;5.05;3.03;;;;;;;24.29;48.03;100687.38;6165824;23;20024;-79
2022/05/30 11:55:43;;;;;;;5.35;3.45;;;;;;;24.59;47.76;100692.09;6159826;23;20460;-80
2022/05/30 11:58:24;;;;;;;3.58;2.63;;;;;;;23.99;48.04;100579.66;6217121;23;20066;-80